Time;durP1;ratioP1;P1;durP2;ratioP2;P2;SDS_P1;SDS_P2;PMS_P1;PMS_P2;Temp;Humidity;BMP_temperature;BMP_pressure;BME280_temperature;BME280_humidity;BME280_pressure;Samples;Min_cycle;Max_cycle;Signal;HPM_P1;HPM_P2
2022/07/13 00:01:34;;;;;;;0.82;0.80;;;18.00;51.90;;;;;;5038043;28;20030;-59
2022/07/13 00:04:00;;;;;;;2.47;1.02;;;18.00;52.40;;;;;;5063579;28;20044;-58
2022/07/13 00:06:26;;;;;;;1.00;0.80;;;17.90;52.60;;;;;;5046497;28;20052;-60
2022/07/13 00:08:51;;;;;;;0.77;0.70;;;17.90;52.70;;;;;;5049680;28;20021;-59
2022/07/13 00:11:17;;;;;;;1.55;0.68;;;17.90;52.60;;;;;;5043542;28;20090;-60
2022/07/13 00:13:43;;;;;;;1.25;0.80;;;17.80;52.70;;;;;;5052679;28;20025;-61
2022/07/13 00:16:08;;;;;;;0.82;0.82;;;17.80;52.80;;;;;;5050534;28;20084;-60
2022/07/13 00:18:34;;;;;;;1.45;0.80;;;17.80;52.90;;;;;;5055450;28;20052;-60
2022/07/13 00:21:00;;;;;;;4.88;1.08;;;17.70;52.90;;;;;;5051479;28;20085;-59
2022/07/13 00:23:25;;;;;;;1.33;0.70;;;17.70;53.10;;;;;;5055450;28;20033;-59
2022/07/13 00:25:51;;;;;;;1.25;0.90;;;17.70;53.10;;;;;;5063794;28;20053;-58
2022/07/13 00:28:17;;;;;;;1.15;0.80;;;17.70;53.20;;;;;;5065607;28;20031;-59
2022/07/13 00:30:42;;;;;;;0.93;0.80;;;17.60;53.50;;;;;;5043838;28;20524;-58
2022/07/13 00:33:08;;;;;;;3.50;0.82;;;17.60;53.70;;;;;;5062448;28;20452;-59
2022/07/13 00:35:34;;;;;;;0.77;0.77;;;17.60;53.70;;;;;;5049347;28;20048;-60
2022/07/13 00:38:00;;;;;;;0.95;0.70;;;17.50;53.60;;;;;;5063921;28;20025;-59
2022/07/13 00:40:26;;;;;;;1.00;0.73;;;17.50;53.50;;;;;;5047205;28;20415;-61
2022/07/13 00:42:52;;;;;;;0.75;0.75;;;17.50;53.70;;;;;;5066565;28;20025;-60
2022/07/13 00:45:18;;;;;;;1.10;1.00;;;17.40;53.80;;;;;;5047142;28;20033;-61
2022/07/13 00:47:47;;;;;;;1.00;0.70;;;17.40;54.00;;;;;;5064065;28;21395;-59
2022/07/13 00:50:13;;;;;;;1.67;0.80;;;17.40;54.20;;;;;;5045896;28;20057;-59
2022/07/13 00:52:39;;;;;;;0.70;0.70;;;17.40;54.10;;;;;;5047307;28;20036;-60
2022/07/13 00:55:09;;;;;;;1.13;0.90;;;17.30;53.90;;;;;;5053256;28;20060;-58
2022/07/13 00:57:36;;;;;;;1.40;0.70;;;17.30;54.20;;;;;;5047959;28;20028;-58
2022/07/13 01:00:11;;;;;;;5.28;0.90;;;17.30;54.00;;;;;;5048369;28;20036;-60
2022/07/13 01:02:38;;;;;;;0.98;0.70;;;17.20;54.30;;;;;;5047290;28;20042;-61
2022/07/13 01:05:04;;;;;;;1.88;0.70;;;17.20;54.00;;;;;;5047412;28;20365;-61
2022/07/13 01:07:32;;;;;;;1.33;0.90;;;17.20;54.20;;;;;;5055890;28;20033;-59
2022/07/13 01:10:00;;;;;;;2.35;0.90;;;17.10;54.30;;;;;;5047773;28;20061;-60
2022/07/13 01:12:28;;;;;;;0.95;0.75;;;17.10;54.20;;;;;;5048779;28;20052;-60
2022/07/13 01:14:55;;;;;;;1.08;0.90;;;17.10;55.00;;;;;;5047664;28;20032;-61
2022/07/13 01:17:21;;;;;;;1.35;0.80;;;17.00;54.50;;;;;;5053674;28;20087;-59
2022/07/13 01:19:47;;;;;;;0.90;0.90;;;17.00;54.50;;;;;;5066360;28;20021;-59
2022/07/13 01:22:19;;;;;;;0.70;0.70;;;17.00;54.90;;;;;;5046465;28;20017;-59
2022/07/13 01:24:45;;;;;;;0.80;0.80;;;16.90;55.50;;;;;;5038608;28;20063;-60
2022/07/13 01:27:12;;;;;;;1.40;0.90;;;16.90;55.40;;;;;;5056199;28;20030;-61
2022/07/13 01:29:39;;;;;;;1.05;0.82;;;16.90;56.10;;;;;;5057625;28;20080;-60
2022/07/13 01:32:05;;;;;;;1.30;0.90;;;16.90;55.30;;;;;;5042178;28;20026;-61
2022/07/13 01:34:30;;;;;;;0.88;0.77;;;16.80;55.00;;;;;;5056238;28;20032;-60
2022/07/13 01:36:57;;;;;;;2.50;1.33;;;16.80;55.00;;;;;;5059048;28;20098;-61
2022/07/13 01:39:23;;;;;;;5.05;3.47;;;16.80;55.00;;;;;;5060324;28;20051;-60
2022/07/13 01:41:48;;;;;;;4.95;3.70;;;16.70;55.10;;;;;;5047973;28;20108;-59
2022/07/13 01:44:15;;;;;;;3.05;2.22;;;16.70;55.10;;;;;;5058951;28;20112;-61
2022/07/13 01:46:40;;;;;;;3.15;1.20;;;16.70;55.30;;;;;;5050355;28;20083;-61
2022/07/13 01:49:06;;;;;;;1.17;1.08;;;16.60;55.20;;;;;;5062811;28;20404;-60
2022/07/13 01:51:31;;;;;;;1.75;1.20;;;16.60;55.40;;;;;;5052710;28;20553;-60
2022/07/13 01:53:57;;;;;;;3.10;1.00;;;16.50;55.40;;;;;;5058572;28;20546;-60
2022/07/13 01:56:23;;;;;;;1.45;0.80;;;16.50;55.50;;;;;;5054757;28;20030;-60
2022/07/13 01:58:48;;;;;;;1.08;0.90;;;16.50;55.60;;;;;;5063564;28;20029;-58
2022/07/13 02:01:14;;;;;;;2.88;0.77;;;16.40;55.50;;;;;;5043709;28;20044;-58
2022/07/13 02:03:40;;;;;;;1.08;0.90;;;16.40;55.60;;;;;;5059802;28;20037;-58
2022/07/13 02:06:06;;;;;;;1.23;0.80;;;16.40;55.80;;;;;;5066344;28;20036;-60
2022/07/13 02:08:32;;;;;;;0.73;0.73;;;16.40;55.90;;;;;;5046911;28;20032;-59
2022/07/13 02:10:57;;;;;;;1.95;0.80;;;16.30;56.00;;;;;;5046965;28;20270;-60
2022/07/13 02:13:23;;;;;;;0.70;0.70;;;16.30;56.00;;;;;;5054619;28;20039;-58
2022/07/13 02:15:50;;;;;;;0.80;0.70;;;16.30;56.10;;;;;;5049570;28;20030;-59
2022/07/13 02:18:15;;;;;;;1.77;0.80;;;16.30;56.20;;;;;;5054949;28;20026;-61
2022/07/13 02:20:41;;;;;;;1.25;0.70;;;16.20;56.30;;;;;;5039940;28;20030;-60
2022/07/13 02:23:06;;;;;;;1.20;0.80;;;16.20;56.10;;;;;;5048262;28;20030;-59
2022/07/13 02:25:33;;;;;;;0.95;0.85;;;16.20;56.30;;;;;;5059062;28;20047;-60
2022/07/13 02:27:59;;;;;;;0.80;0.80;;;16.10;56.30;;;;;;5041293;28;20056;-60
2022/07/13 02:30:25;;;;;;;1.67;0.73;;;16.10;56.50;;;;;;5051850;28;20041;-60
2022/07/13 02:32:50;;;;;;;0.68;0.68;;;16.10;56.50;;;;;;5055505;28;20025;-60
2022/07/13 02:35:16;;;;;;;1.33;0.85;;;16.10;56.50;;;;;;5055118;28;20055;-59
2022/07/13 02:37:42;;;;;;;0.80;0.80;;;16.00;56.60;;;;;;5048739;28;20037;-61
2022/07/13 02:40:10;;;;;;;1.95;1.00;;;16.00;56.70;;;;;;5044792;28;20033;-59
2022/07/13 02:42:35;;;;;;;0.80;0.80;;;16.00;56.70;;;;;;5054128;28;20033;-59
2022/07/13 02:45:01;;;;;;;2.30;0.80;;;16.00;56.90;;;;;;5058904;28;20040;-60
2022/07/13 02:47:27;;;;;;;1.10;0.80;;;15.90;57.10;;;;;;5053445;28;20013;-61
2022/07/13 02:49:52;;;;;;;3.38;0.90;;;15.90;57.20;;;;;;5047541;28;20036;-60
2022/07/13 02:52:18;;;;;;;0.82;0.77;;;15.90;57.10;;;;;;5060095;28;20030;-61
2022/07/13 02:54:44;;;;;;;1.60;0.90;;;15.90;57.10;;;;;;5057751;28;20030;-60
2022/07/13 02:57:10;;;;;;;0.80;0.80;;;15.90;57.40;;;;;;5056052;28;20055;-60
2022/07/13 02:59:36;;;;;;;0.80;0.80;;;15.90;57.50;;;;;;5044976;28;20029;-59
2022/07/13 03:02:06;;;;;;;1.58;0.80;;;15.90;57.50;;;;;;5066005;28;20036;-59
2022/07/13 03:04:35;;;;;;;5.70;0.80;;;15.90;57.80;;;;;;5043437;28;20038;-62
2022/07/13 03:07:01;;;;;;;3.50;0.80;;;15.90;57.60;;;;;;5056201;28;20029;-61
2022/07/13 03:09:27;;;;;;;1.92;0.90;;;15.90;57.30;;;;;;5052949;28;20500;-60
2022/07/13 03:11:53;;;;;;;2.08;1.00;;;15.80;57.40;;;;;;5065750;28;20032;-61
2022/07/13 03:14:19;;;;;;;1.63;0.90;;;15.80;57.80;;;;;;5048056;28;20020;-59
2022/07/13 03:16:45;;;;;;;1.15;0.90;;;15.80;57.80;;;;;;5055661;28;20037;-61
2022/07/13 03:19:10;;;;;;;1.17;0.90;;;15.80;57.80;;;;;;5034544;28;20060;-61
2022/07/13 03:21:36;;;;;;;1.10;1.00;;;15.80;57.70;;;;;;5041712;28;20022;-59
2022/07/13 03:24:02;;;;;;;0.82;0.82;;;15.80;57.80;;;;;;5049304;28;20045;-60
2022/07/13 03:26:28;;;;;;;1.00;0.90;;;15.70;57.80;;;;;;5058764;28;20029;-58
2022/07/13 03:28:53;;;;;;;1.90;0.93;;;15.70;57.90;;;;;;5057746;28;20075;-59
2022/07/13 03:31:19;;;;;;;3.90;0.70;;;15.70;57.90;;;;;;5043632;28;20093;-59
2022/07/13 03:33:45;;;;;;;2.05;0.80;;;15.70;58.00;;;;;;5043479;28;20034;-59
2022/07/13 03:36:11;;;;;;;2.92;0.70;;;15.60;57.90;;;;;;5046502;28;20599;-59
2022/07/13 03:38:37;;;;;;;0.70;0.70;;;15.60;58.00;;;;;;5063854;28;20089;-59
2022/07/13 03:41:03;;;;;;;7.00;0.88;;;15.60;58.20;;;;;;5047824;28;20044;-60
2022/07/13 03:43:29;;;;;;;1.77;0.80;;;15.60;58.20;;;;;;5062479;28;20041;-60
2022/07/13 03:45:55;;;;;;;1.33;0.70;;;15.60;58.20;;;;;;5045443;28;20129;-59
2022/07/13 03:48:21;;;;;;;0.90;0.90;;;15.60;58.20;;;;;;5064348;28;20025;-59
2022/07/13 03:50:48;;;;;;;1.20;0.90;;;15.60;58.10;;;;;;5044421;28;20029;-59
2022/07/13 03:53:14;;;;;;;1.52;0.82;;;15.60;58.30;;;;;;5063955;28;20017;-59
2022/07/13 03:55:41;;;;;;;1.30;0.90;;;15.50;58.40;;;;;;5045751;28;20064;-60
2022/07/13 03:58:07;;;;;;;1.58;0.80;;;15.60;58.50;;;;;;5064175;28;20033;-60
2022/07/13 04:00:32;;;;;;;1.25;0.65;;;15.60;58.70;;;;;;5046705;28;20469;-59
2022/07/13 04:02:58;;;;;;;1.05;0.70;;;15.50;58.60;;;;;;5063815;28;20381;-59
2022/07/13 04:05:25;;;;;;;1.27;0.80;;;15.50;58.70;;;;;;5045150;28;20040;-59
2022/07/13 04:07:52;;;;;;;0.88;0.60;;;15.50;58.80;;;;;;5065361;28;20492;-59
2022/07/13 04:10:18;;;;;;;0.55;0.55;;;15.50;58.90;;;;;;5043973;28;20032;-59
2022/07/13 04:12:44;;;;;;;0.85;0.75;;;15.50;59.50;;;;;;5052008;28;20032;-60
2022/07/13 04:15:11;;;;;;;2.47;0.90;;;15.50;58.90;;;;;;5045750;28;20159;-60
2022/07/13 04:17:37;;;;;;;1.30;0.73;;;15.50;59.10;;;;;;5047231;28;20029;-59
2022/07/13 04:20:03;;;;;;;0.90;0.70;;;15.50;59.30;;;;;;5038299;28;20030;-59
2022/07/13 04:22:29;;;;;;;1.65;0.80;;;15.60;59.50;;;;;;5044849;28;20037;-58
2022/07/13 04:24:54;;;;;;;0.75;0.70;;;15.60;59.50;;;;;;5046956;28;20042;-58
2022/07/13 04:27:22;;;;;;;2.13;0.70;;;15.70;59.40;;;;;;5045675;28;20101;-61
2022/07/13 04:29:47;;;;;;;1.30;0.70;;;15.70;59.40;;;;;;5049839;28;20053;-61
2022/07/13 04:32:13;;;;;;;1.42;0.80;;;15.80;59.40;;;;;;5042886;28;20060;-60
2022/07/13 04:34:39;;;;;;;1.13;0.70;;;15.80;59.40;;;;;;5059019;28;20480;-59
2022/07/13 04:37:04;;;;;;;0.80;0.80;;;15.90;59.20;;;;;;5063354;28;20025;-60
2022/07/13 04:39:31;;;;;;;0.80;0.80;;;15.90;59.10;;;;;;5061210;28;20115;-59
2022/07/13 04:41:57;;;;;;;4.13;0.90;;;16.00;59.10;;;;;;5049573;28;20048;-60
2022/07/13 04:44:23;;;;;;;1.60;0.90;;;16.10;59.10;;;;;;5056836;28;20037;-59
2022/07/13 04:46:48;;;;;;;3.30;0.95;;;16.20;59.30;;;;;;5065313;28;20047;-58
2022/07/13 04:49:15;;;;;;;1.85;0.90;;;16.30;59.20;;;;;;5041735;28;20026;-59
2022/07/13 04:51:41;;;;;;;4.43;1.00;;;16.40;59.20;;;;;;5052478;28;20033;-60
2022/07/13 04:54:07;;;;;;;2.17;1.05;;;16.50;59.20;;;;;;5064424;28;20035;-60
2022/07/13 04:56:32;;;;;;;0.82;0.82;;;16.50;59.00;;;;;;5044571;28;20341;-59
2022/07/13 04:58:58;;;;;;;1.73;0.90;;;16.60;58.80;;;;;;5064460;28;20047;-60
2022/07/13 05:01:23;;;;;;;2.58;1.10;;;16.70;58.70;;;;;;5041398;28;20424;-59
2022/07/13 05:03:49;;;;;;;4.25;1.08;;;16.80;58.60;;;;;;5064153;28;20044;-58
2022/07/13 05:06:15;;;;;;;7.07;1.50;;;16.90;58.70;;;;;;5046201;28;20025;-59
2022/07/13 05:08:41;;;;;;;5.45;1.52;;;17.00;58.50;;;;;;5049648;28;20043;-61
2022/07/13 05:11:08;;;;;;;6.25;1.27;;;17.10;58.40;;;;;;5048870;28;20049;-59
2022/07/13 05:13:34;;;;;;;4.43;1.25;;;17.20;58.20;;;;;;5041377;28;20021;-59
2022/07/13 05:16:00;;;;;;;1.95;1.00;;;17.20;58.20;;;;;;5046477;28;20037;-59
2022/07/13 05:18:25;;;;;;;3.63;0.90;;;17.40;58.20;;;;;;5050733;28;20017;-58
2022/07/13 05:20:51;;;;;;;5.78;1.33;;;17.40;58.10;;;;;;5050784;28;20029;-58
2022/07/13 05:23:17;;;;;;;5.40;1.25;;;17.60;57.90;;;;;;5051553;28;20037;-59
2022/07/13 05:25:43;;;;;;;4.60;1.33;;;17.60;57.70;;;;;;5046543;28;20038;-59
2022/07/13 05:28:08;;;;;;;2.13;1.10;;;17.70;57.50;;;;;;5047614;28;20029;-61
2022/07/13 05:30:34;;;;;;;1.30;0.80;;;17.80;57.50;;;;;;5050375;28;20045;-59
2022/07/13 05:33:00;;;;;;;1.10;1.00;;;17.90;57.40;;;;;;5057495;28;20036;-60
2022/07/13 05:35:26;;;;;;;4.45;0.98;;;18.00;57.30;;;;;;5047377;28;20055;-59
2022/07/13 05:37:51;;;;;;;1.00;0.85;;;18.10;57.10;;;;;;5056256;28;20641;-59
2022/07/13 05:40:17;;;;;;;3.92;0.80;;;18.20;57.10;;;;;;5050989;28;20029;-59
2022/07/13 05:42:43;;;;;;;6.60;0.93;;;18.40;57.10;;;;;;5046784;28;20029;-60
2022/07/13 05:45:09;;;;;;;4.60;1.00;;;18.50;57.00;;;;;;5046232;28;20048;-60
2022/07/13 05:47:35;;;;;;;1.10;0.90;;;18.60;57.40;;;;;;5047545;28;20029;-58
2022/07/13 05:50:01;;;;;;;4.18;0.93;;;18.80;56.60;;;;;;5056637;28;20467;-60
2022/07/13 05:52:26;;;;;;;1.52;0.93;;;18.90;56.40;;;;;;5048379;28;20040;-59
2022/07/13 05:54:54;;;;;;;4.43;0.90;;;19.10;56.20;;;;;;5049589;28;20056;-60
2022/07/13 05:57:20;;;;;;;4.32;1.00;;;19.30;56.10;;;;;;5054614;28;20468;-60
2022/07/13 05:59:45;;;;;;;2.92;1.15;;;19.40;55.80;;;;;;5045895;28;20029;-60
2022/07/13 06:02:11;;;;;;;8.85;2.63;;;19.60;55.80;;;;;;5048342;28;20029;-61
2022/07/13 06:04:38;;;;;;;6.07;1.15;;;19.80;55.80;;;;;;5064668;28;20068;-60
2022/07/13 06:07:03;;;;;;;1.73;1.10;;;19.90;55.70;;;;;;5066569;28;20036;-60
2022/07/13 06:09:29;;;;;;;3.65;1.10;;;20.10;55.50;;;;;;5048079;28;20034;-60
2022/07/13 06:11:54;;;;;;;3.85;1.05;;;20.30;55.20;;;;;;5050396;28;20220;-60
2022/07/13 06:14:20;;;;;;;8.95;1.10;;;20.50;54.90;;;;;;5037109;28;20033;-61
2022/07/13 06:16:46;;;;;;;2.38;1.30;;;20.70;54.70;;;;;;5046134;28;20025;-59
2022/07/13 06:19:12;;;;;;;4.53;1.42;;;20.80;54.30;;;;;;5066412;28;20344;-60
2022/07/13 06:21:37;;;;;;;2.95;1.00;;;21.00;54.10;;;;;;5045179;28;20076;-60
2022/07/13 06:24:03;;;;;;;4.43;1.20;;;21.20;53.70;;;;;;5060320;28;20041;-61
2022/07/13 06:26:30;;;;;;;1.58;0.93;;;21.30;53.50;;;;;;4984615;28;20034;-60
2022/07/13 06:28:56;;;;;;;2.28;1.02;;;21.50;53.50;;;;;;5053863;28;20120;-61
2022/07/13 06:31:21;;;;;;;2.70;1.05;;;21.60;53.30;;;;;;5055485;28;20067;-60
2022/07/13 06:33:51;;;;;;;1.92;0.90;;;21.70;52.90;;;;;;5066282;28;20031;-59
2022/07/13 06:36:16;;;;;;;2.97;1.00;;;21.90;52.80;;;;;;5046055;28;20084;-61
2022/07/13 06:38:42;;;;;;;4.95;0.93;;;22.10;52.60;;;;;;5066068;28;20029;-61
2022/07/13 06:41:08;;;;;;;2.50;1.13;;;22.20;52.40;;;;;;5039139;28;20119;-61
2022/07/13 06:43:33;;;;;;;2.65;1.05;;;22.40;52.30;;;;;;5065257;28;20090;-60
2022/07/13 06:46:00;;;;;;;4.55;1.30;;;22.60;52.00;;;;;;5046187;28;20070;-60
2022/07/13 06:48:26;;;;;;;6.07;1.30;;;22.80;51.80;;;;;;5066021;28;20029;-61
2022/07/13 06:50:51;;;;;;;3.63;1.10;;;22.90;51.60;;;;;;5052647;28;20498;-60
2022/07/13 06:53:17;;;;;;;5.60;1.00;;;23.10;51.60;;;;;;5046743;28;20045;-59
2022/07/13 06:55:43;;;;;;;2.65;0.90;;;23.20;51.30;;;;;;5057893;28;20059;-58
2022/07/13 06:58:09;;;;;;;4.95;0.82;;;23.40;51.60;;;;;;5072151;28;20035;-60
2022/07/13 07:00:35;;;;;;;2.92;0.95;;;23.50;51.30;;;;;;5052289;28;20067;-59
2022/07/13 07:03:00;;;;;;;4.38;0.98;;;23.70;51.10;;;;;;5053230;28;20029;-60
2022/07/13 07:05:26;;;;;;;2.45;0.80;;;23.80;50.50;;;;;;5068517;28;20031;-59
2022/07/13 07:07:52;;;;;;;4.45;0.77;;;24.00;50.20;;;;;;5070378;28;20031;-58
2022/07/13 07:10:18;;;;;;;1.98;0.85;;;24.20;50.30;;;;;;5055116;28;20056;-61
2022/07/13 07:12:43;;;;;;;2.45;0.88;;;24.30;49.90;;;;;;5052534;28;20124;-59
2022/07/13 07:15:09;;;;;;;6.90;0.95;;;24.50;49.50;;;;;;5067241;28;20021;-59
2022/07/13 07:17:43;;;;;;;1.52;0.77;;;24.60;49.30;;;;;;5063929;28;20028;-59
2022/07/13 07:20:09;;;;;;;;;;;24.80;48.30;;;;;;5033856;28;20025;-60
2022/07/13 07:22:35;;;;;;;1.80;0.85;;;24.90;48.80;;;;;;5056094;28;19920;-61
2022/07/13 07:25:01;;;;;;;0.98;0.60;;;25.10;48.60;;;;;;5055747;28;20021;-59
2022/07/13 07:27:26;;;;;;;2.10;0.80;;;25.20;48.10;;;;;;5065484;28;20088;-60
2022/07/13 07:29:52;;;;;;;1.48;0.77;;;25.40;48.70;;;;;;5044924;28;20049;-59
2022/07/13 07:32:18;;;;;;;7.32;0.82;;;25.50;48.00;;;;;;5058625;28;20060;-59
2022/07/13 07:34:43;;;;;;;1.77;0.57;;;25.70;47.80;;;;;;5058574;28;20054;-59
2022/07/13 07:37:09;;;;;;;4.60;0.70;;;25.80;47.00;;;;;;5044540;28;20472;-59
2022/07/13 07:39:38;;;;;;;1.88;0.50;;;26.00;47.20;;;;;;5064771;28;20044;-60
2022/07/13 07:42:04;;;;;;;2.10;0.65;;;26.10;46.80;;;;;;5043854;28;20029;-60
2022/07/13 07:44:30;;;;;;;1.27;0.60;;;26.30;46.60;;;;;;5064772;28;20041;-60
2022/07/13 07:46:56;;;;;;;0.88;0.55;;;26.40;45.80;;;;;;5044675;28;20025;-60
2022/07/13 07:49:22;;;;;;;1.20;0.50;;;26.60;45.50;;;;;;5064857;28;20079;-60
2022/07/13 07:51:48;;;;;;;1.23;0.55;;;26.70;45.20;;;;;;5044891;28;20033;-59
2022/07/13 07:54:14;;;;;;;3.50;0.60;;;26.90;44.80;;;;;;5044745;28;20033;-60
2022/07/13 07:56:39;;;;;;;2.67;0.50;;;27.10;44.30;;;;;;5049197;28;20202;-60
2022/07/13 07:59:05;;;;;;;3.65;0.47;;;27.20;44.20;;;;;;5064498;28;20057;-60
2022/07/13 08:01:31;;;;;;;0.40;0.40;;;27.30;43.50;;;;;;5043914;28;20026;-60
2022/07/13 08:03:56;;;;;;;1.10;0.68;;;27.40;43.00;;;;;;5064647;28;20037;-60
2022/07/13 08:06:22;;;;;;;1.35;0.50;;;27.60;43.40;;;;;;5044671;28;20034;-60
2022/07/13 08:08:48;;;;;;;0.65;0.40;;;27.70;43.10;;;;;;5064791;28;20028;-60
2022/07/13 08:11:17;;;;;;;0.55;0.40;;;27.80;42.70;;;;;;5045737;28;20044;-62
2022/07/13 08:13:44;;;;;;;1.10;0.50;;;28.00;42.30;;;;;;5045716;28;20026;-60
2022/07/13 08:16:10;;;;;;;0.82;0.32;;;28.10;41.60;;;;;;5046941;28;20476;-60
2022/07/13 08:18:36;;;;;;;2.38;0.30;;;28.20;40.50;;;;;;5050768;28;20017;-60
2022/07/13 08:21:02;;;;;;;1.75;0.60;;;28.20;41.10;;;;;;5047343;28;20036;-60
2022/07/13 08:26:12;;;;;;;;;;;28.30;39.80;;;;;;5044037;28;20039;-59
2022/07/13 08:28:38;;;;;;;0.40;0.30;;;28.50;40.90;;;;;;5047828;28;19925;-60
2022/07/13 08:31:05;;;;;;;4.68;0.60;;;28.60;40.10;;;;;;5042639;28;20084;-60
2022/07/13 08:38:59;;;;;;;3.30;0.40;;;28.70;39.90;;;;;;5043852;28;20068;-60
2022/07/13 08:41:26;;;;;;;0.50;0.50;;;28.70;39.40;;;;;;5048788;28;20128;-61
2022/07/13 08:43:51;;;;;;;0.70;0.50;;;28.70;38.80;;;;;;5046481;28;20037;-60
2022/07/13 08:46:21;;;;;;;0.43;0.40;;;28.80;39.30;;;;;;5053705;28;20033;-60
2022/07/13 08:48:49;;;;;;;2.13;0.30;;;28.80;39.50;;;;;;5059712;28;20541;-59
2022/07/13 08:51:18;;;;;;;2.92;0.45;;;28.90;39.50;;;;;;5049601;28;20026;-60
2022/07/13 08:53:43;;;;;;;0.80;0.40;;;29.00;38.80;;;;;;5052542;28;20036;-60
2022/07/13 08:56:10;;;;;;;2.15;0.40;;;29.20;38.60;;;;;;5055446;28;20025;-60
2022/07/13 08:58:36;;;;;;;0.75;0.50;;;29.30;38.10;;;;;;5052107;28;20029;-60
2022/07/13 09:01:02;;;;;;;4.80;0.50;;;29.50;37.00;;;;;;5046661;28;20030;-60
2022/07/13 09:03:34;;;;;;;0.95;0.40;;;29.60;36.50;;;;;;5049060;28;20036;-60
2022/07/13 09:05:59;;;;;;;0.50;0.50;;;29.70;36.00;;;;;;5064584;28;20108;-60
2022/07/13 09:08:25;;;;;;;1.67;0.45;;;29.80;36.70;;;;;;5053874;28;20026;-59
2022/07/13 09:11:01;;;;;;;0.73;0.60;;;30.00;36.40;;;;;;5055237;28;20029;-60
2022/07/13 09:13:44;;;;;;;3.08;0.57;;;30.10;35.10;;;;;;5032938;28;20014;-60
2022/07/13 09:16:23;;;;;;;1.15;0.50;;;30.20;34.80;;;;;;5045898;28;20038;-60
2022/07/13 09:18:51;;;;;;;2.17;0.50;;;30.40;34.80;;;;;;5067947;28;20036;-61
2022/07/13 09:21:19;;;;;;;3.65;0.50;;;30.50;35.80;;;;;;5048802;28;20118;-59
2022/07/13 09:23:50;;;;;;;1.40;0.40;;;30.60;33.90;;;;;;5071966;28;20068;-60
2022/07/13 09:26:18;;;;;;;1.58;0.40;;;30.70;33.60;;;;;;5038086;28;20032;-61
2022/07/13 09:28:45;;;;;;;0.52;0.38;;;30.80;34.30;;;;;;5055407;28;20523;-61
2022/07/13 09:31:14;;;;;;;2.97;0.32;;;30.80;34.20;;;;;;5058973;28;20069;-61
2022/07/13 09:33:43;;;;;;;1.58;0.50;;;30.90;33.90;;;;;;5068122;28;20025;-61
2022/07/13 09:36:17;;;;;;;5.78;0.50;;;31.00;33.70;;;;;;5054739;28;20059;-59
2022/07/13 09:38:43;;;;;;;;;;;31.10;32.00;;;;;;5047509;28;20029;-61
2022/07/13 09:41:16;;;;;;;2.70;0.70;;;31.10;34.30;;;;;;5058731;28;19955;-59
2022/07/13 09:46:58;;;;;;;2.83;0.43;;;31.20;32.80;;;;;;5051304;28;20282;-60
2022/07/13 09:49:35;;;;;;;1.45;0.43;;;31.20;32.50;;;;;;5044311;28;20026;-62
2022/07/13 09:52:04;;;;;;;2.05;0.40;;;31.20;31.40;;;;;;5051483;28;20033;-62
2022/07/13 09:54:32;;;;;;;2.63;0.30;;;31.30;32.20;;;;;;5067607;28;20041;-59
2022/07/13 09:57:00;;;;;;;2.40;0.40;;;31.30;31.70;;;;;;5031597;28;20443;-66
2022/07/13 09:59:29;;;;;;;0.93;0.40;;;31.40;32.70;;;;;;5051627;28;20080;-60
2022/07/13 10:01:56;;;;;;;0.50;0.35;;;31.50;32.40;;;;;;5049756;28;20033;-60
2022/07/13 10:04:22;;;;;;;0.65;0.30;;;31.50;32.70;;;;;;5057239;28;20488;-60
2022/07/13 10:06:51;;;;;;;0.70;0.38;;;31.50;30.90;;;;;;5051763;28;20021;-59
2022/07/13 10:09:35;;;;;;;0.32;0.30;;;31.50;30.00;;;;;;5067328;28;20032;-59
2022/07/13 10:12:06;;;;;;;1.98;0.30;;;31.50;31.20;;;;;;5041234;28;20032;-60
2022/07/13 10:14:32;;;;;;;0.73;0.40;;;31.50;31.40;;;;;;5027633;28;20040;-59
2022/07/13 10:17:25;;;;;;;1.02;0.40;;;31.50;31.30;;;;;;5051338;28;20045;-60
2022/07/13 10:19:57;;;;;;;5.05;0.68;;;31.60;31.10;;;;;;5028200;28;20118;-60
2022/07/13 10:22:25;;;;;;;5.35;0.40;;;31.70;30.00;;;;;;5046632;28;20034;-61
2022/07/13 10:24:57;;;;;;;5.00;1.00;;;31.80;30.10;;;;;;5060176;28;20038;-60
2022/07/13 10:27:25;;;;;;;14.48;0.98;;;31.90;31.60;;;;;;5029944;28;20041;-60
2022/07/13 10:29:59;;;;;;;1.27;0.30;;;32.00;30.70;;;;;;5066550;28;20049;-59
2022/07/13 10:32:27;;;;;;;7.25;0.50;;;32.10;29.90;;;;;;5042349;28;20048;-60
2022/07/13 10:34:57;;;;;;;0.52;0.30;;;32.20;30.00;;;;;;5047408;28;20041;-60
2022/07/13 10:37:24;;;;;;;1.65;0.43;;;32.20;29.40;;;;;;5047861;28;20503;-61
2022/07/13 10:40:20;;;;;;;1.40;0.50;;;32.20;30.00;;;;;;5066350;28;20021;-60
2022/07/13 10:42:54;;;;;;;1.27;0.50;;;32.20;29.80;;;;;;5042673;28;20049;-60
2022/07/13 10:45:38;;;;;;;8.88;0.55;;;32.30;30.30;;;;;;5065942;28;20043;-60
2022/07/13 10:48:24;;;;;;;2.53;0.40;;;32.30;29.70;;;;;;5026689;28;20034;-60
2022/07/13 10:50:56;;;;;;;1.38;0.32;;;32.40;30.00;;;;;;5027347;28;20029;-60
2022/07/13 10:53:45;;;;;;;0.75;0.43;;;32.40;30.90;;;;;;5051207;28;20397;-61
2022/07/13 10:56:18;;;;;;;0.40;0.30;;;32.50;30.40;;;;;;5031415;28;20025;-61
2022/07/13 10:58:45;;;;;;;0.47;0.28;;;32.60;28.90;;;;;;5065829;28;20400;-60
2022/07/13 11:01:42;;;;;;;0.30;0.30;;;32.70;29.50;;;;;;5045659;28;20083;-60
2022/07/13 11:04:11;;;;;;;0.90;0.60;;;32.80;28.90;;;;;;5045863;28;20045;-60
2022/07/13 11:06:38;;;;;;;2.55;0.30;;;32.80;29.10;;;;;;5064219;28;20087;-60
2022/07/13 11:09:13;;;;;;;0.70;0.40;;;32.90;28.20;;;;;;5045390;28;20030;-61
2022/07/13 11:11:50;;;;;;;0.95;0.40;;;32.80;26.40;;;;;;5062960;28;20163;-60
2022/07/13 11:14:35;;;;;;;1.65;0.35;;;32.80;26.70;;;;;;5032122;28;20029;-60
2022/07/13 11:17:23;;;;;;;4.47;0.35;;;32.70;27.30;;;;;;5038005;28;20045;-59
2022/07/13 11:20:02;;;;;;;2.13;0.40;;;32.80;27.70;;;;;;5043916;28;20079;-60
2022/07/13 11:25:41;;;;;;;3.05;0.30;;;33.00;28.00;;;;;;5051845;28;20045;-59
2022/07/13 11:28:18;;;;;;;0.30;0.30;;;33.10;27.20;;;;;;5064962;28;20033;-60
2022/07/13 11:30:52;;;;;;;0.95;0.38;;;33.30;26.30;;;;;;5045853;28;20052;-60
2022/07/13 11:33:19;;;;;;;;;;;33.40;26.30;;;;;;5053247;28;20028;-60
2022/07/13 11:35:46;;;;;;;1.35;0.30;;;33.50;27.50;;;;;;5063015;28;20026;-61
2022/07/13 11:38:14;;;;;;;0.60;0.30;;;33.50;27.30;;;;;;5063620;28;20048;-60
2022/07/13 11:40:40;;;;;;;0.40;0.30;;;33.50;26.90;;;;;;5061624;28;20090;-60
2022/07/13 11:43:08;;;;;;;0.35;0.30;;;33.60;26.70;;;;;;5053876;28;20033;-61
2022/07/13 11:45:34;;;;;;;0.25;0.20;;;33.60;25.70;;;;;;5065360;28;20064;-60
2022/07/13 11:48:04;;;;;;;1.13;0.55;;;33.70;26.20;;;;;;5064398;28;20025;-60
2022/07/13 11:50:50;;;;;;;1.15;0.43;;;33.80;24.60;;;;;;5045213;28;20037;-60
2022/07/13 11:53:26;;;;;;;0.20;0.20;;;33.90;24.20;;;;;;5044637;28;20083;-59
2022/07/13 11:55:53;;;;;;;0.40;0.20;;;34.00;23.60;;;;;;5042569;28;20029;-59
2022/07/13 11:58:23;;;;;;;0.73;0.28;;;34.10;24.30;;;;;;5045893;28;20036;-60
2022/07/13 12:00:49;;;;;;;0.45;0.20;;;34.20;23.40;;;;;;5052691;28;20034;-60
2022/07/13 12:03:16;;;;;;;0.30;0.20;;;34.30;22.10;;;;;;5047230;28;20449;-60
2022/07/13 12:05:44;;;;;;;0.30;0.30;;;34.40;23.80;;;;;;5050926;28;20367;-60
2022/07/13 12:08:11;;;;;;;2.17;0.28;;;34.40;23.20;;;;;;5042701;28;20033;-60
2022/07/13 12:10:37;;;;;;;4.55;0.35;;;34.50;22.70;;;;;;5045220;28;20075;-62
2022/07/13 12:13:03;;;;;;;1.20;0.30;;;34.60;22.40;;;;;;5041389;28;20100;-59
2022/07/13 12:15:29;;;;;;;0.45;0.30;;;34.60;21.90;;;;;;5055100;28;20073;-60
2022/07/13 12:17:55;;;;;;;0.22;0.20;;;34.60;21.50;;;;;;5042260;28;20104;-60
2022/07/13 12:20:22;;;;;;;0.75;0.50;;;34.50;21.80;;;;;;5047494;28;20025;-61
2022/07/13 12:22:57;;;;;;;0.40;0.30;;;34.50;21.90;;;;;;5046576;28;20168;-61
2022/07/13 12:25:27;;;;;;;0.35;0.20;;;34.60;21.60;;;;;;5043327;28;20017;-60
2022/07/13 12:27:54;;;;;;;0.65;0.43;;;34.60;22.70;;;;;;5036472;28;20089;-60
2022/07/13 12:30:20;;;;;;;0.20;0.20;;;34.70;22.50;;;;;;5047783;28;20053;-61
2022/07/13 12:33:02;;;;;;;0.45;0.20;;;34.80;22.30;;;;;;5046569;28;20045;-60
2022/07/13 12:35:41;;;;;;;0.85;0.22;;;34.90;22.00;;;;;;5044619;28;20032;-60
2022/07/13 12:38:12;;;;;;;0.20;0.20;;;35.00;22.40;;;;;;5047800;28;20021;-60
2022/07/13 12:40:49;;;;;;;0.45;0.30;;;35.10;22.20;;;;;;5036113;28;20037;-59
2022/07/13 12:43:26;;;;;;;1.23;0.40;;;35.20;21.00;;;;;;5060950;28;20364;-61
2022/07/13 12:45:57;;;;;;;7.80;1.77;;;35.10;21.90;;;;;;5048563;28;20026;-60
2022/07/13 12:48:25;;;;;;;0.93;0.40;;;35.10;22.80;;;;;;5029754;28;20092;-60
2022/07/13 12:51:03;;;;;;;1.35;0.20;;;35.20;22.70;;;;;;5049417;28;20096;-60
2022/07/13 12:53:47;;;;;;;0.20;0.20;;;35.20;22.80;;;;;;5047043;28;20076;-61
2022/07/13 12:56:17;;;;;;;1.52;0.20;;;35.30;21.70;;;;;;5047456;28;20097;-60
2022/07/13 12:59:05;;;;;;;0.17;0.17;;;35.40;22.20;;;;;;5046158;28;20029;-60
2022/07/13 13:01:36;;;;;;;0.20;0.20;;;35.60;21.50;;;;;;5038950;28;20086;-60
2022/07/13 13:04:09;;;;;;;2.53;0.20;;;35.70;21.50;;;;;;5044197;28;20068;-61
2022/07/13 13:06:37;;;;;;;1.85;0.30;;;35.80;21.50;;;;;;5051164;28;20032;-60